createdAt,value
2023-02-19T00:01:16.492Z,12.44
2023-02-19T00:03:43.935Z,12.43
2023-02-19T00:06:11.387Z,12.42
2023-02-19T00:08:39.048Z,12.43
2023-02-19T00:11:07.004Z,12.41
2023-02-19T00:13:37.927Z,12.42
2023-02-19T00:16:13.875Z,12.41
2023-02-19T00:18:40.972Z,12.43
2023-02-19T00:21:08.075Z,12.46
2023-02-19T00:23:35.188Z,12.47
2023-02-19T00:26:17.203Z,12.43
2023-02-19T00:28:45.481Z,12.43
2023-02-19T00:31:21.937Z,12.44
2023-02-19T00:33:49.676Z,12.44
2023-02-19T00:36:16.287Z,12.45
2023-02-19T00:38:43.807Z,12.44
2023-02-19T00:41:20.802Z,12.48
2023-02-19T00:43:56.572Z,12.50
2023-02-19T00:46:27.280Z,12.53
2023-02-19T00:48:54.517Z,12.56
2023-02-19T00:51:23.208Z,12.58
2023-02-19T00:53:49.926Z,12.60
2023-02-19T00:56:16.596Z,12.58
2023-02-19T00:58:43.176Z,12.60
2023-02-19T01:01:11.082Z,12.61
2023-02-19T01:03:39.158Z,12.59
2023-02-19T01:06:09.892Z,12.61
2023-02-19T01:08:36.873Z,12.57
2023-02-19T01:11:05.117Z,12.52
2023-02-19T01:13:32.124Z,12.46
2023-02-19T01:16:10.774Z,12.45
2023-02-19T01:18:37.495Z,12.44
2023-02-19T01:21:09.166Z,12.45
2023-02-19T01:23:36.468Z,12.48
2023-02-19T01:26:09.383Z,12.51
2023-02-19T01:28:36.221Z,12.52
2023-02-19T01:31:07.754Z,12.50
2023-02-19T01:33:37.423Z,12.49
2023-02-19T01:36:04.961Z,12.51
2023-02-19T01:38:31.858Z,12.54
2023-02-19T01:41:00.688Z,12.53
2023-02-19T01:43:30.085Z,12.54
2023-02-19T01:45:56.627Z,12.54
2023-02-19T01:48:26.154Z,12.55
2023-02-19T01:51:11.588Z,12.52
2023-02-19T01:53:42.248Z,12.51
2023-02-19T01:56:09.651Z,12.50
2023-02-19T01:58:37.255Z,12.48
2023-02-19T02:01:07.118Z,12.44
2023-02-19T02:03:34.942Z,12.41
2023-02-19T02:06:22.795Z,12.39
2023-02-19T02:09:13.975Z,12.36
2023-02-19T02:11:43.724Z,12.36
2023-02-19T02:14:10.426Z,12.35
2023-02-19T02:17:10.905Z,12.31
2023-02-19T02:19:59.382Z,12.29
2023-02-19T02:22:33.114Z,12.34
2023-02-19T02:25:12.897Z,12.37
2023-02-19T02:27:45.540Z,12.41
2023-02-19T02:30:15.178Z,12.45
2023-02-19T02:32:53.704Z,12.51
2023-02-19T02:35:23.925Z,12.56
2023-02-19T02:37:51.205Z,12.60
2023-02-19T02:40:18.823Z,12.64
2023-02-19T02:42:45.410Z,12.67
2023-02-19T02:45:36.297Z,12.68
2023-02-19T02:48:24.919Z,12.70
2023-02-19T02:51:06.856Z,12.74
2023-02-19T02:53:56.190Z,12.76
2023-02-19T02:56:24.984Z,12.79
2023-02-19T02:58:52.825Z,12.80
2023-02-19T03:01:44.642Z,12.82
2023-02-19T03:04:15.978Z,12.72
2023-02-19T03:06:43.760Z,12.66
2023-02-19T03:09:18.111Z,12.61
2023-02-19T03:12:05.769Z,12.58
2023-02-19T03:14:56.423Z,12.57
2023-02-19T03:17:49.122Z,12.55
2023-02-19T03:20:16.301Z,12.54
2023-02-19T03:22:43.551Z,12.54
2023-02-19T03:25:36.323Z,12.53
2023-02-19T03:28:04.609Z,12.51
2023-02-19T03:30:40.394Z,12.49
2023-02-19T03:33:12.338Z,12.46
2023-02-19T03:35:40.884Z,12.45
2023-02-19T03:38:18.636Z,12.45
2023-02-19T03:41:14.210Z,12.41
2023-02-19T03:43:45.482Z,12.39
2023-02-19T03:46:23.284Z,12.37
2023-02-19T03:48:59.641Z,12.35
2023-02-19T03:51:39.215Z,12.35
2023-02-19T03:54:11.858Z,12.37
2023-02-19T03:56:45.651Z,12.39
2023-02-19T03:59:19.151Z,12.43
2023-02-19T04:02:18.530Z,12.48
2023-02-19T04:04:52.143Z,12.52
2023-02-19T04:07:18.874Z,12.56
2023-02-19T04:09:48.822Z,12.56
2023-02-19T04:12:15.808Z,12.60
2023-02-19T04:14:46.535Z,12.63
2023-02-19T04:17:33.780Z,12.69
2023-02-19T04:20:01.067Z,12.71
2023-02-19T04:22:27.991Z,12.73
2023-02-19T04:24:55.640Z,12.75
2023-02-19T04:27:22.155Z,12.76
2023-02-19T04:29:48.676Z,12.78
2023-02-19T04:32:15.352Z,12.80
2023-02-19T04:34:41.939Z,12.82
2023-02-19T04:37:08.529Z,12.83
2023-02-19T04:39:35.106Z,12.83
2023-02-19T04:42:01.654Z,12.85
2023-02-19T04:44:28.594Z,12.85
2023-02-19T04:46:55.429Z,12.84
2023-02-19T04:49:21.995Z,12.80
2023-02-19T04:51:48.516Z,12.79
2023-02-19T04:54:15.148Z,12.78
2023-02-19T04:56:41.692Z,12.79
2023-02-19T04:59:08.278Z,12.82
2023-02-19T05:01:35.511Z,12.81
2023-02-19T05:04:02.173Z,12.80
2023-02-19T05:06:29.814Z,12.78
2023-02-19T05:08:56.354Z,12.79
2023-02-19T05:11:23.892Z,12.79
2023-02-19T05:13:50.580Z,12.79
2023-02-19T05:16:17.462Z,12.80
2023-02-19T05:18:45.643Z,12.81
2023-02-19T05:21:12.772Z,12.80
2023-02-19T05:23:39.553Z,12.75
2023-02-19T05:26:09.176Z,12.66
2023-02-19T05:28:36.065Z,12.63
2023-02-19T05:31:10.616Z,12.59
2023-02-19T05:33:38.095Z,12.56
2023-02-19T05:36:07.384Z,12.52
2023-02-19T05:38:33.999Z,12.49
2023-02-19T05:41:16.139Z,12.45
2023-02-19T05:43:43.246Z,12.39
2023-02-19T05:46:13.306Z,12.34
2023-02-19T05:48:39.963Z,12.27
2023-02-19T05:51:14.588Z,12.25
2023-02-19T05:53:42.033Z,12.23
2023-02-19T05:56:25.020Z,12.23
2023-02-19T05:58:51.823Z,12.25
2023-02-19T06:01:19.877Z,12.27
2023-02-19T06:03:46.579Z,12.26
2023-02-19T06:06:18.720Z,12.25
2023-02-19T06:08:46.077Z,12.22
2023-02-19T06:11:12.877Z,12.20
2023-02-19T06:13:39.619Z,12.19
2023-02-19T06:16:09.775Z,12.20
2023-02-19T06:18:36.854Z,12.18
2023-02-19T06:21:09.331Z,12.19
2023-02-19T06:23:36.054Z,12.21
2023-02-19T06:26:23.226Z,12.22
2023-02-19T06:28:51.766Z,12.25
2023-02-19T06:31:19.537Z,12.26
2023-02-19T06:33:46.694Z,12.26
2023-02-19T06:36:15.599Z,12.24
2023-02-19T06:38:42.389Z,12.23
2023-02-19T06:41:10.101Z,12.18
2023-02-19T06:43:37.201Z,12.05
2023-02-19T06:46:05.385Z,11.83
2023-02-19T06:48:33.129Z,11.62
2023-02-19T06:50:59.845Z,11.50
2023-02-19T06:53:26.690Z,11.46
2023-02-19T06:56:09.097Z,11.41
2023-02-19T06:58:35.663Z,11.38
2023-02-19T07:01:02.342Z,11.47
2023-02-19T07:03:28.958Z,11.60
2023-02-19T07:05:55.556Z,11.70
2023-02-19T07:08:22.201Z,11.76
2023-02-19T07:10:58.629Z,11.83
2023-02-19T07:13:26.874Z,11.87
2023-02-19T07:16:02.699Z,11.91
2023-02-19T07:18:29.836Z,11.92
2023-02-19T07:21:02.812Z,11.96
2023-02-19T07:23:29.341Z,11.96
2023-02-19T07:25:55.919Z,12.01
2023-02-19T07:28:26.618Z,12.05
2023-02-19T07:30:53.322Z,12.07
2023-02-19T07:33:20.037Z,12.09
2023-02-19T07:35:47.798Z,12.09
2023-02-19T07:38:18.309Z,12.11
2023-02-19T07:40:59.277Z,12.16
2023-02-19T07:43:27.549Z,12.20
2023-02-19T07:45:56.902Z,12.22
2023-02-19T07:48:23.859Z,12.26
2023-02-19T07:50:59.280Z,12.32
2023-02-19T07:53:27.109Z,12.35
2023-02-19T07:55:53.835Z,12.36
2023-02-19T07:58:20.465Z,12.39
2023-02-19T08:00:47.197Z,12.42
2023-02-19T08:03:13.825Z,12.44
2023-02-19T08:05:42.029Z,12.48
2023-02-19T08:08:10.534Z,12.53
2023-02-19T08:10:55.729Z,12.57
2023-02-19T08:13:23.235Z,12.64
2023-02-19T08:15:55.146Z,12.67
2023-02-19T08:18:27.344Z,12.68
2023-02-19T08:20:55.269Z,12.68
2023-02-19T08:23:22.604Z,12.69
2023-02-19T08:25:50.768Z,12.70
2023-02-19T08:28:17.876Z,12.71
2023-02-19T08:30:46.137Z,12.72
2023-02-19T08:33:14.895Z,12.76
2023-02-19T08:35:42.923Z,12.82
2023-02-19T08:38:11.189Z,12.86
2023-02-19T08:40:39.339Z,12.88
2023-02-19T08:43:14.135Z,12.91
2023-02-19T08:45:42.517Z,12.90
2023-02-19T08:48:09.767Z,12.93
2023-02-19T08:50:36.779Z,12.96
2023-02-19T08:53:04.476Z,13.00
2023-02-19T08:55:33.150Z,13.00
2023-02-19T08:57:59.945Z,13.03
2023-02-19T09:00:27.440Z,13.06
2023-02-19T09:02:53.973Z,13.10
2023-02-19T09:05:20.544Z,13.15
2023-02-19T09:07:47.088Z,13.19
2023-02-19T09:10:14.151Z,13.20
2023-02-19T09:12:40.931Z,13.23
2023-02-19T09:15:07.876Z,13.29
2023-02-19T09:17:34.554Z,13.33
2023-02-19T09:20:01.123Z,13.37
2023-02-19T09:22:27.686Z,13.45
2023-02-19T09:24:54.320Z,13.48
2023-02-19T09:27:21.344Z,13.52
2023-02-19T09:29:48.051Z,13.54
2023-02-19T09:32:14.742Z,13.58
2023-02-19T09:34:41.730Z,13.63
2023-02-19T09:37:08.699Z,13.68
2023-02-19T09:39:35.867Z,13.73
2023-02-19T09:42:17.640Z,13.79
2023-02-19T09:44:50.226Z,13.85
2023-02-19T09:47:25.015Z,13.88
2023-02-19T09:49:54.658Z,13.92
2023-02-19T09:52:40.121Z,13.99
2023-02-19T09:55:21.424Z,14.07
2023-02-19T09:57:48.759Z,14.11
2023-02-19T10:00:26.982Z,14.17
2023-02-19T10:03:34.474Z,14.24
2023-02-19T10:06:09.453Z,14.29
2023-02-19T10:08:38.060Z,14.37
2023-02-19T10:11:05.630Z,14.44
2023-02-19T10:13:35.874Z,14.48
2023-02-19T10:16:05.310Z,14.56
2023-02-19T10:18:38.480Z,14.66
2023-02-19T10:21:05.827Z,14.71
2023-02-19T10:23:32.746Z,14.74
2023-02-19T10:26:00.286Z,14.81
2023-02-19T10:28:36.588Z,14.90
2023-02-19T10:31:06.830Z,14.99
2023-02-19T10:33:33.345Z,15.08
2023-02-19T10:36:04.041Z,15.14
2023-02-19T10:38:34.580Z,15.21
2023-02-19T10:41:06.167Z,15.30
2023-02-19T10:43:37.178Z,15.37
2023-02-19T10:46:15.502Z,15.46
2023-02-19T10:48:47.106Z,15.51
2023-02-19T10:51:15.314Z,15.62
2023-02-19T10:53:49.888Z,15.73
2023-02-19T10:56:27.632Z,15.77
2023-02-19T10:58:55.187Z,15.80
2023-02-19T11:01:24.079Z,15.88
2023-02-19T11:04:09.968Z,15.82
2023-02-19T11:06:36.782Z,15.69
2023-02-19T11:09:03.418Z,15.71
2023-02-19T11:11:38.390Z,15.76
2023-02-19T11:14:15.863Z,15.77
2023-02-19T11:16:44.976Z,15.83
2023-02-19T11:19:30.487Z,15.90
2023-02-19T11:21:58.341Z,15.98
2023-02-19T11:24:37.547Z,16.01
2023-02-19T11:27:06.121Z,16.06
2023-02-19T11:29:35.549Z,16.11
2023-02-19T11:32:20.813Z,16.17
2023-02-19T11:34:48.187Z,16.17
2023-02-19T11:37:21.036Z,16.19
2023-02-19T11:39:48.908Z,16.26
2023-02-19T11:42:34.329Z,16.31
2023-02-19T11:45:14.774Z,16.34
2023-02-19T11:48:03.363Z,16.38
2023-02-19T11:50:52.776Z,16.42
2023-02-19T11:53:32.285Z,16.44
2023-02-19T11:56:33.958Z,16.51
2023-02-19T11:59:05.506Z,16.56
2023-02-19T12:01:35.033Z,16.63
2023-02-19T12:04:32.467Z,16.74
2023-02-19T12:07:18.452Z,16.73
2023-02-19T12:10:13.204Z,16.66
2023-02-19T12:13:04.777Z,16.58
2023-02-19T12:15:32.914Z,16.52
2023-02-19T12:18:19.038Z,16.44
2023-02-19T12:21:03.970Z,16.40
2023-02-19T12:23:49.120Z,16.36
2023-02-19T12:26:24.461Z,16.32
2023-02-19T12:29:19.216Z,16.26
2023-02-19T12:31:58.227Z,16.18
2023-02-19T12:34:46.673Z,16.16
2023-02-19T12:37:13.220Z,16.23
2023-02-19T12:40:17.100Z,16.28
2023-02-19T12:43:06.939Z,16.25
2023-02-19T12:45:36.090Z,16.25
2023-02-19T12:48:13.623Z,16.24
2023-02-19T12:50:40.773Z,16.27
2023-02-19T12:53:30.666Z,16.23
2023-02-19T12:55:57.644Z,16.17
2023-02-19T12:58:32.586Z,16.10
2023-02-19T13:00:59.920Z,16.00
2023-02-19T13:03:35.475Z,15.90
2023-02-19T13:06:26.759Z,15.85
2023-02-19T13:09:09.058Z,15.82
2023-02-19T13:11:59.951Z,15.82
2023-02-19T13:14:30.738Z,15.89
2023-02-19T13:17:08.742Z,16.00
2023-02-19T13:19:39.747Z,16.09
2023-02-19T13:22:42.997Z,16.09
2023-02-19T13:25:10.267Z,16.06
2023-02-19T13:27:42.416Z,16.09
2023-02-19T13:30:18.817Z,16.14
2023-02-19T13:32:58.939Z,16.15
2023-02-19T13:35:50.520Z,16.21
2023-02-19T13:38:17.307Z,16.30
2023-02-19T13:40:54.614Z,16.38
2023-02-19T13:43:39.055Z,16.47
2023-02-19T13:46:11.064Z,16.54
2023-02-19T13:48:40.532Z,16.63
2023-02-19T13:51:13.530Z,16.75
2023-02-19T13:53:45.888Z,16.80
2023-02-19T13:56:31.367Z,16.79
2023-02-19T13:59:38.063Z,16.78
2023-02-19T14:02:04.627Z,16.73
2023-02-19T14:04:42.354Z,16.67
2023-02-19T14:07:08.859Z,16.61
2023-02-19T14:09:40.989Z,16.53
2023-02-19T14:12:07.600Z,16.41
2023-02-19T14:14:40.840Z,16.28
2023-02-19T14:17:13.161Z,16.16
2023-02-19T14:19:42.505Z,16.08
2023-02-19T14:22:46.247Z,16.02
2023-02-19T14:25:30.818Z,15.94
2023-02-19T14:28:06.733Z,15.89
2023-02-19T14:30:35.409Z,15.82
2023-02-19T14:33:10.531Z,15.64
2023-02-19T14:35:43.398Z,15.50
2023-02-19T14:38:22.781Z,15.42
2023-02-19T14:40:50.203Z,15.33
2023-02-19T14:43:19.377Z,15.30
2023-02-19T14:45:53.988Z,15.25
2023-02-19T14:48:26.957Z,15.21
2023-02-19T14:50:58.233Z,15.18
2023-02-19T14:53:28.083Z,15.09
2023-02-19T14:55:55.322Z,15.05
2023-02-19T14:58:29.174Z,15.03
2023-02-19T15:00:55.874Z,15.00
2023-02-19T15:03:27.142Z,15.01
2023-02-19T15:05:59.598Z,14.96
2023-02-19T15:08:36.602Z,14.94
2023-02-19T15:11:04.764Z,14.85
2023-02-19T15:13:31.819Z,14.72
2023-02-19T15:15:58.517Z,14.52
2023-02-19T15:18:26.741Z,14.36
2023-02-19T15:21:04.645Z,14.25
2023-02-19T15:23:33.060Z,14.10
2023-02-19T15:26:00.850Z,14.05
2023-02-19T15:28:32.620Z,13.98
2023-02-19T15:30:59.113Z,13.88
2023-02-19T15:33:27.355Z,13.84
2023-02-19T15:35:58.506Z,13.81
2023-02-19T15:38:25.727Z,13.83
2023-02-19T15:40:53.431Z,13.82
2023-02-19T15:43:26.104Z,13.80
2023-02-19T15:45:56.598Z,13.88
2023-02-19T15:48:27.874Z,13.89
2023-02-19T15:51:02.922Z,13.88
2023-02-19T15:53:31.239Z,13.85
2023-02-19T15:56:32.693Z,13.77
2023-02-19T15:59:05.798Z,13.76
2023-02-19T16:01:41.703Z,13.79
2023-02-19T16:04:14.066Z,13.79
2023-02-19T16:06:52.704Z,13.73
2023-02-19T16:09:31.898Z,13.74
2023-02-19T16:12:00.462Z,13.73
2023-02-19T16:14:29.209Z,13.71
2023-02-19T16:17:01.430Z,13.73
2023-02-19T16:19:30.553Z,13.75
2023-02-19T16:21:58.216Z,13.78
2023-02-19T16:24:37.292Z,13.79
2023-02-19T16:27:04.635Z,13.74
2023-02-19T16:29:33.066Z,13.70
2023-02-19T16:32:02.560Z,13.72
2023-02-19T16:34:50.609Z,13.74
2023-02-19T16:37:34.272Z,13.72
2023-02-19T16:40:11.123Z,13.73
2023-02-19T16:43:06.734Z,13.75
2023-02-19T16:45:33.453Z,13.69
2023-02-19T16:48:00.501Z,13.65
2023-02-19T16:50:27.297Z,13.63
2023-02-19T16:52:59.159Z,13.63
2023-02-19T16:55:26.096Z,13.60
2023-02-19T16:57:52.894Z,13.56
2023-02-19T17:00:21.796Z,13.53
2023-02-19T17:02:50.314Z,13.54
2023-02-19T17:05:18.457Z,13.55
2023-02-19T17:07:45.047Z,13.54
2023-02-19T17:10:23.520Z,13.52
2023-02-19T17:12:54.420Z,13.50
2023-02-19T17:15:21.639Z,13.48
2023-02-19T17:17:48.441Z,13.43
2023-02-19T17:20:17.834Z,13.40
2023-02-19T17:22:44.650Z,13.38
2023-02-19T17:25:11.510Z,13.41
2023-02-19T17:27:40.565Z,13.43
2023-02-19T17:30:12.498Z,13.44
2023-02-19T17:32:39.049Z,13.42
2023-02-19T17:35:06.094Z,13.44
2023-02-19T17:37:32.670Z,13.44
2023-02-19T17:39:59.150Z,13.44
2023-02-19T17:42:25.933Z,13.43
2023-02-19T17:44:53.557Z,13.43
2023-02-19T17:47:21.331Z,13.44
2023-02-19T17:49:47.965Z,13.43
2023-02-19T17:52:17.590Z,13.45
2023-02-19T17:54:44.202Z,13.48
2023-02-19T17:57:10.751Z,13.48
2023-02-19T17:59:37.383Z,13.49
2023-02-19T18:02:04.042Z,13.50
2023-02-19T18:04:30.798Z,13.48
2023-02-19T18:06:57.681Z,13.48
2023-02-19T18:09:24.674Z,13.49
2023-02-19T18:11:51.225Z,13.51
2023-02-19T18:14:17.777Z,13.53
2023-02-19T18:16:50.117Z,13.54
2023-02-19T18:19:17.170Z,13.52
2023-02-19T18:21:43.650Z,13.52
2023-02-19T18:24:10.290Z,13.46
2023-02-19T18:26:36.882Z,13.43
2023-02-19T18:29:05.426Z,13.36
2023-02-19T18:31:33.185Z,13.32
2023-02-19T18:33:59.880Z,13.31
2023-02-19T18:36:26.486Z,13.30
2023-02-19T18:38:53.023Z,13.31
2023-02-19T18:41:21.208Z,13.30
2023-02-19T18:43:48.141Z,13.28
2023-02-19T18:46:15.148Z,13.27
2023-02-19T18:48:41.762Z,13.25
2023-02-19T18:51:11.912Z,13.28
2023-02-19T18:53:38.768Z,13.32
2023-02-19T18:56:05.684Z,13.30
2023-02-19T18:58:33.713Z,13.28
2023-02-19T19:01:00.288Z,13.31
2023-02-19T19:03:39.571Z,13.31
2023-02-19T19:06:06.262Z,13.31
2023-02-19T19:08:32.847Z,13.27
2023-02-19T19:11:00.938Z,13.26
2023-02-19T19:13:27.469Z,13.27
2023-02-19T19:15:54.173Z,13.25
2023-02-19T19:18:20.956Z,13.26
2023-02-19T19:20:47.726Z,13.26
2023-02-19T19:23:14.379Z,13.30
2023-02-19T19:25:40.919Z,13.29
2023-02-19T19:28:07.621Z,13.28
2023-02-19T19:30:34.336Z,13.28
2023-02-19T19:33:02.524Z,13.31
2023-02-19T19:35:29.662Z,13.32
2023-02-19T19:37:56.225Z,13.35
2023-02-19T19:40:22.856Z,13.34
2023-02-19T19:42:51.248Z,13.34
2023-02-19T19:45:18.256Z,13.33
2023-02-19T19:47:44.955Z,13.33
2023-02-19T19:50:13.260Z,13.35
2023-02-19T19:52:40.043Z,13.36
2023-02-19T19:55:07.205Z,13.36
2023-02-19T19:57:33.802Z,13.34
2023-02-19T20:00:01.168Z,13.33
2023-02-19T20:02:27.806Z,13.30
2023-02-19T20:04:54.506Z,13.33
2023-02-19T20:07:21.369Z,13.33
2023-02-19T20:09:49.540Z,13.33
2023-02-19T20:12:16.775Z,13.27
2023-02-19T20:14:45.666Z,13.23
2023-02-19T20:17:12.741Z,13.18
2023-02-19T20:19:39.293Z,13.14
2023-02-19T20:22:06.047Z,13.13
2023-02-19T20:24:32.836Z,13.10
2023-02-19T20:27:02.051Z,13.11
2023-02-19T20:29:30.764Z,13.10
2023-02-19T20:32:02.406Z,13.14
2023-02-19T20:34:29.960Z,13.18
2023-02-19T20:36:56.959Z,13.24
2023-02-19T20:39:28.716Z,13.26
2023-02-19T20:41:56.138Z,13.31
2023-02-19T20:44:22.701Z,13.34
2023-02-19T20:46:53.515Z,13.39
2023-02-19T20:49:22.406Z,13.45
2023-02-19T20:51:54.835Z,13.43
2023-02-19T20:54:25.548Z,13.45
2023-02-19T20:56:55.997Z,13.48
2023-02-19T20:59:30.946Z,13.48
2023-02-19T21:02:01.919Z,13.48
2023-02-19T21:04:28.794Z,13.52
2023-02-19T21:06:55.424Z,13.57
2023-02-19T21:09:23.025Z,13.57
2023-02-19T21:11:50.455Z,13.53
2023-02-19T21:14:17.828Z,13.46
2023-02-19T21:16:44.877Z,13.38
2023-02-19T21:19:12.963Z,13.26
2023-02-19T21:21:40.365Z,13.18
2023-02-19T21:24:07.563Z,13.09
2023-02-19T21:26:36.285Z,13.06
2023-02-19T21:29:04.204Z,13.03
2023-02-19T21:31:42.445Z,13.01
2023-02-19T21:34:11.283Z,13.01
2023-02-19T21:36:38.003Z,12.99
2023-02-19T21:39:06.321Z,12.95
2023-02-19T21:41:33.175Z,12.95
2023-02-19T21:43:59.927Z,12.94
2023-02-19T21:46:27.061Z,12.93
2023-02-19T21:48:55.634Z,12.92
2023-02-19T21:51:28.706Z,12.89
2023-02-19T21:53:55.241Z,12.86
2023-02-19T21:56:27.618Z,12.85
2023-02-19T21:58:54.431Z,12.82
2023-02-19T22:01:22.841Z,12.80
2023-02-19T22:03:49.459Z,12.80
2023-02-19T22:06:16.318Z,12.78
2023-02-19T22:08:43.821Z,12.76
2023-02-19T22:11:10.477Z,12.78
2023-02-19T22:13:37.064Z,12.89
2023-02-19T22:16:07.520Z,12.99
2023-02-19T22:18:37.721Z,13.09
2023-02-19T22:21:05.351Z,13.18
2023-02-19T22:23:32.036Z,13.26
2023-02-19T22:25:58.666Z,13.32
2023-02-19T22:28:25.204Z,13.39
2023-02-19T22:30:51.749Z,13.43
2023-02-19T22:33:18.300Z,13.48
2023-02-19T22:35:44.894Z,13.54
2023-02-19T22:38:11.720Z,13.55
2023-02-19T22:40:38.284Z,13.55
2023-02-19T22:43:04.860Z,13.54
2023-02-19T22:45:31.505Z,13.52
2023-02-19T22:47:58.081Z,13.51
2023-02-19T22:50:26.451Z,13.51
2023-02-19T22:52:55.117Z,13.51
2023-02-19T22:55:22.165Z,13.53
2023-02-19T22:57:48.830Z,13.52
2023-02-19T23:00:20.961Z,13.51
2023-02-19T23:02:48.524Z,13.53
2023-02-19T23:05:16.140Z,13.56
2023-02-19T23:07:46.583Z,13.56
2023-02-19T23:10:13.509Z,13.56
2023-02-19T23:12:40.649Z,13.57
2023-02-19T23:15:08.983Z,13.60
2023-02-19T23:17:35.727Z,13.62
2023-02-19T23:20:02.594Z,13.63
2023-02-19T23:22:29.229Z,13.63
2023-02-19T23:24:55.880Z,13.63
2023-02-19T23:27:24.317Z,13.62
2023-02-19T23:29:50.948Z,13.62
2023-02-19T23:32:21.004Z,13.62
2023-02-19T23:34:48.330Z,13.64
2023-02-19T23:37:15.048Z,13.66
2023-02-19T23:39:41.631Z,13.67
2023-02-19T23:42:12.708Z,13.67
2023-02-19T23:44:39.288Z,13.68
2023-02-19T23:47:05.843Z,13.71
2023-02-19T23:49:32.390Z,13.73
2023-02-19T23:51:58.957Z,13.72
2023-02-19T23:54:25.518Z,13.74
2023-02-19T23:56:52.102Z,13.72
2023-02-19T23:59:19.845Z,13.73
